sensor_id;sensor_type;location;lat;lon;timestamp;pressure;altitude;pressure_sealevel;temperature;humidity
54816;BME280;40715;55.752;37.884;2023-09-19T00:00:44;99571.94;;;30.93;30.65
54816;BME280;40715;55.752;37.884;2023-09-19T00:03:14;99571.09;;;30.92;30.64
54816;BME280;40715;55.752;37.884;2023-09-19T00:05:42;99568.53;;;30.91;30.79
54816;BME280;40715;55.752;37.884;2023-09-19T00:08:11;99575.69;;;30.92;30.79
54816;BME280;40715;55.752;37.884;2023-09-19T00:10:40;99583.13;;;30.90;31.05
54816;BME280;40715;55.752;37.884;2023-09-19T00:13:09;99563.59;;;30.86;30.96
54816;BME280;40715;55.752;37.884;2023-09-19T00:15:42;99576.19;;;30.87;30.75
54816;BME280;40715;55.752;37.884;2023-09-19T00:18:10;99570.59;;;30.89;30.58
54816;BME280;40715;55.752;37.884;2023-09-19T00:20:37;99577.19;;;30.86;30.84
54816;BME280;40715;55.752;37.884;2023-09-19T00:23:05;99580.75;;;30.87;30.80
54816;BME280;40715;55.752;37.884;2023-09-19T00:25:36;99570.91;;;30.86;30.90
54816;BME280;40715;55.752;37.884;2023-09-19T00:28:07;99587.72;;;30.81;30.60
54816;BME280;40715;55.752;37.884;2023-09-19T00:30:34;99573.09;;;30.82;30.60
54816;BME280;40715;55.752;37.884;2023-09-19T00:33:02;99573.28;;;30.80;31.08
54816;BME280;40715;55.752;37.884;2023-09-19T00:35:32;99574.28;;;30.79;31.00
54816;BME280;40715;55.752;37.884;2023-09-19T00:38:00;99579.91;;;30.78;30.71
54816;BME280;40715;55.752;37.884;2023-09-19T00:40:27;99569.03;;;30.78;31.09
54816;BME280;40715;55.752;37.884;2023-09-19T00:42:57;99576.66;;;30.74;30.79
54816;BME280;40715;55.752;37.884;2023-09-19T00:45:27;99567.47;;;30.75;30.83
54816;BME280;40715;55.752;37.884;2023-09-19T00:47:55;99573.94;;;30.74;30.72
54816;BME280;40715;55.752;37.884;2023-09-19T00:50:25;99570.53;;;30.72;31.04
54816;BME280;40715;55.752;37.884;2023-09-19T00:52:56;99571.41;;;30.73;31.08
54816;BME280;40715;55.752;37.884;2023-09-19T00:55:24;99587.72;;;30.73;31.10
54816;BME280;40715;55.752;37.884;2023-09-19T00:57:51;99586.50;;;30.67;30.83
54816;BME280;40715;55.752;37.884;2023-09-19T01:00:19;99582.25;;;30.64;30.98
54816;BME280;40715;55.752;37.884;2023-09-19T01:02:48;99577.31;;;30.60;31.16
54816;BME280;40715;55.752;37.884;2023-09-19T01:05:15;99583.44;;;30.62;30.93
54816;BME280;40715;55.752;37.884;2023-09-19T01:07:42;99580.53;;;30.63;31.11
54816;BME280;40715;55.752;37.884;2023-09-19T01:10:17;99572.56;;;30.62;31.12
54816;BME280;40715;55.752;37.884;2023-09-19T01:15:58;99571.38;;;30.64;31.28
54816;BME280;40715;55.752;37.884;2023-09-19T01:29:26;99561.84;;;30.60;31.26
54816;BME280;40715;55.752;37.884;2023-09-19T01:32:03;99572.56;;;30.62;31.08
54816;BME280;40715;55.752;37.884;2023-09-19T01:34:50;99571.03;;;30.68;30.91
54816;BME280;40715;55.752;37.884;2023-09-19T01:37:20;99569.28;;;30.58;31.01
54816;BME280;40715;55.752;37.884;2023-09-19T01:39:55;99566.75;;;30.57;31.07
54816;BME280;40715;55.752;37.884;2023-09-19T01:45:49;99557.25;;;30.61;30.94
54816;BME280;40715;55.752;37.884;2023-09-19T01:51:08;99549.06;;;30.53;31.02
54816;BME280;40715;55.752;37.884;2023-09-19T01:53:45;99546.50;;;30.51;31.09
54816;BME280;40715;55.752;37.884;2023-09-19T01:56:40;99543.81;;;30.59;31.10
54816;BME280;40715;55.752;37.884;2023-09-19T01:59:13;99544.81;;;30.50;30.93
54816;BME280;40715;55.752;37.884;2023-09-19T02:01:42;99546.00;;;30.48;30.87
54816;BME280;40715;55.752;37.884;2023-09-19T02:04:12;99546.00;;;30.48;30.82
54816;BME280;40715;55.752;37.884;2023-09-19T02:06:42;99542.59;;;30.45;31.12
54816;BME280;40715;55.752;37.884;2023-09-19T02:09:09;99547.84;;;30.47;30.73
54816;BME280;40715;55.752;37.884;2023-09-19T02:11:36;99554.16;;;30.48;31.12
54816;BME280;40715;55.752;37.884;2023-09-19T02:14:03;99544.13;;;30.48;30.80
54816;BME280;40715;55.752;37.884;2023-09-19T02:16:35;99534.44;;;30.45;31.08
54816;BME280;40715;55.752;37.884;2023-09-19T02:19:02;99557.88;;;30.46;31.00
54816;BME280;40715;55.752;37.884;2023-09-19T02:21:33;99543.97;;;30.50;30.63
54816;BME280;40715;55.752;37.884;2023-09-19T02:24:00;99547.72;;;30.49;30.78
54816;BME280;40715;55.752;37.884;2023-09-19T02:26:28;99530.53;;;30.48;30.67
54816;BME280;40715;55.752;37.884;2023-09-19T02:28:55;99531.41;;;30.49;30.88
54816;BME280;40715;55.752;37.884;2023-09-19T02:31:22;99536.84;;;30.49;30.60
54816;BME280;40715;55.752;37.884;2023-09-19T02:33:49;99526.09;;;30.47;31.04
54816;BME280;40715;55.752;37.884;2023-09-19T02:36:16;99529.53;;;30.49;30.96
54816;BME280;40715;55.752;37.884;2023-09-19T02:38:44;99533.09;;;30.50;30.83
54816;BME280;40715;55.752;37.884;2023-09-19T02:41:11;99528.34;;;30.52;30.67
54816;BME280;40715;55.752;37.884;2023-09-19T02:43:38;99523.59;;;30.54;31.02
54816;BME280;40715;55.752;37.884;2023-09-19T02:46:05;99525.47;;;30.53;30.91
54816;BME280;40715;55.752;37.884;2023-09-19T02:48:33;99523.75;;;30.52;30.92
54816;BME280;40715;55.752;37.884;2023-09-19T02:51:02;99528.84;;;30.55;30.56
54816;BME280;40715;55.752;37.884;2023-09-19T02:53:32;99519.69;;;30.56;30.58
54816;BME280;40715;55.752;37.884;2023-09-19T02:55:59;99524.75;;;30.51;30.96
54816;BME280;40715;55.752;37.884;2023-09-19T02:58:26;99513.72;;;30.53;30.73
54816;BME280;40715;55.752;37.884;2023-09-19T03:00:54;99522.56;;;30.55;30.97
54816;BME280;40715;55.752;37.884;2023-09-19T03:03:22;99519.03;;;30.54;30.81
54816;BME280;40715;55.752;37.884;2023-09-19T03:05:49;99516.44;;;30.53;30.78
54816;BME280;40715;55.752;37.884;2023-09-19T03:08:20;99531.75;;;30.54;30.90
54816;BME280;40715;55.752;37.884;2023-09-19T03:10:48;99533.78;;;30.52;31.11
54816;BME280;40715;55.752;37.884;2023-09-19T03:13:15;99530.88;;;30.45;30.78
54816;BME280;40715;55.752;37.884;2023-09-19T03:15:43;99535.81;;;30.50;30.79
54816;BME280;40715;55.752;37.884;2023-09-19T03:18:17;99542.09;;;30.50;31.31
54816;BME280;40715;55.752;37.884;2023-09-19T03:20:55;99539.38;;;30.50;31.16
54816;BME280;40715;55.752;37.884;2023-09-19T03:23:22;99540.72;;;30.46;31.15
54816;BME280;40715;55.752;37.884;2023-09-19T03:25:50;99537.69;;;30.49;31.47
54816;BME280;40715;55.752;37.884;2023-09-19T03:28:17;99530.69;;;30.46;31.40
54816;BME280;40715;55.752;37.884;2023-09-19T03:30:44;99530.53;;;30.48;31.21
54816;BME280;40715;55.752;37.884;2023-09-19T03:33:12;99527.31;;;30.44;31.56
54816;BME280;40715;55.752;37.884;2023-09-19T03:35:39;99527.31;;;30.44;31.66
54816;BME280;40715;55.752;37.884;2023-09-19T03:38:06;99527.16;;;30.46;31.25
54816;BME280;40715;55.752;37.884;2023-09-19T03:40:33;99522.72;;;30.45;31.69
54816;BME280;40715;55.752;37.884;2023-09-19T03:43:01;99514.41;;;30.46;31.55
54816;BME280;40715;55.752;37.884;2023-09-19T03:45:29;99526.28;;;30.45;31.46
54816;BME280;40715;55.752;37.884;2023-09-19T03:47:56;99524.44;;;30.46;31.76
54816;BME280;40715;55.752;37.884;2023-09-19T03:50:22;99524.44;;;30.46;32.07
54816;BME280;40715;55.752;37.884;2023-09-19T03:52:49;99525.81;;;30.50;32.20
54816;BME280;40715;55.752;37.884;2023-09-19T03:55:17;99528.84;;;30.55;31.91
54816;BME280;40715;55.752;37.884;2023-09-19T03:57:48;99528.22;;;30.61;32.19
54816;BME280;40715;55.752;37.884;2023-09-19T04:00:15;99528.91;;;30.72;31.82
54816;BME280;40715;55.752;37.884;2023-09-19T04:02:45;99530.09;;;30.77;31.71
54816;BME280;40715;55.752;37.884;2023-09-19T04:05:13;99535.19;;;30.80;31.73
54816;BME280;40715;55.752;37.884;2023-09-19T04:07:40;99537.09;;;30.80;31.92
54816;BME280;40715;55.752;37.884;2023-09-19T04:10:07;99528.91;;;30.80;31.45
54816;BME280;40715;55.752;37.884;2023-09-19T04:12:35;99522.63;;;30.79;31.79
54816;BME280;40715;55.752;37.884;2023-09-19T04:15:03;99528.22;;;30.78;31.52
54816;BME280;40715;55.752;37.884;2023-09-19T04:17:31;99524.50;;;30.79;31.34
54816;BME280;40715;55.752;37.884;2023-09-19T04:20:00;99521.94;;;30.77;31.63
54816;BME280;40715;55.752;37.884;2023-09-19T04:22:29;99520.59;;;30.81;31.48
54816;BME280;40715;55.752;37.884;2023-09-19T04:24:56;99507.16;;;30.80;31.52
54816;BME280;40715;55.752;37.884;2023-09-19T04:27:23;99502.75;;;30.79;31.13
54816;BME280;40715;55.752;37.884;2023-09-19T04:29:50;99502.75;;;30.79;31.19
54816;BME280;40715;55.752;37.884;2023-09-19T04:32:19;99502.56;;;30.80;31.02
54816;BME280;40715;55.752;37.884;2023-09-19T04:34:46;99508.84;;;30.81;31.38
54816;BME280;40715;55.752;37.884;2023-09-19T04:37:17;99504.44;;;30.80;31.31
54816;BME280;40715;55.752;37.884;2023-09-19T04:39:44;99501.03;;;30.78;31.13
54816;BME280;40715;55.752;37.884;2023-09-19T04:42:13;99503.25;;;30.74;31.23
54816;BME280;40715;55.752;37.884;2023-09-19T04:44:41;99496.78;;;30.75;31.26
54816;BME280;40715;55.752;37.884;2023-09-19T04:47:09;99500.53;;;30.74;31.14
54816;BME280;40715;55.752;37.884;2023-09-19T04:49:38;99501.72;;;30.72;31.05
54816;BME280;40715;55.752;37.884;2023-09-19T04:52:06;99489.28;;;30.69;31.11
54816;BME280;40715;55.752;37.884;2023-09-19T04:54:33;99493.91;;;30.69;30.98
54816;BME280;40715;55.752;37.884;2023-09-19T04:57:00;99490.81;;;30.63;30.92
54816;BME280;40715;55.752;37.884;2023-09-19T04:59:28;99497.97;;;30.64;30.93
54816;BME280;40715;55.752;37.884;2023-09-19T05:01:58;99488.94;;;30.64;30.75
54816;BME280;40715;55.752;37.884;2023-09-19T05:04:25;99490.16;;;30.61;31.21
54816;BME280;40715;55.752;37.884;2023-09-19T05:06:52;99492.00;;;30.61;30.99
54816;BME280;40715;55.752;37.884;2023-09-19T05:09:20;99487.72;;;30.58;30.94
54816;BME280;40715;55.752;37.884;2023-09-19T05:11:47;99489.78;;;30.56;31.20
54816;BME280;40715;55.752;37.884;2023-09-19T05:14:15;99487.72;;;30.58;30.82
54816;BME280;40715;55.752;37.884;2023-09-19T05:16:41;99484.34;;;30.56;30.92
54816;BME280;40715;55.752;37.884;2023-09-19T05:19:09;99491.84;;;30.54;31.17
54816;BME280;40715;55.752;37.884;2023-09-19T05:21:38;99497.94;;;30.56;30.77
54816;BME280;40715;55.752;37.884;2023-09-19T05:24:08;99492.66;;;30.55;31.41
54816;BME280;40715;55.752;37.884;2023-09-19T05:26:37;99497.94;;;30.56;31.56
54816;BME280;40715;55.752;37.884;2023-09-19T05:29:04;99486.22;;;30.56;31.77
54816;BME280;40715;55.752;37.884;2023-09-19T05:31:31;99482.63;;;30.55;32.28
54816;BME280;40715;55.752;37.884;2023-09-19T05:33:58;99481.78;;;30.55;32.54
54816;BME280;40715;55.752;37.884;2023-09-19T05:36:27;99479.09;;;30.55;32.57
54816;BME280;40715;55.752;37.884;2023-09-19T05:38:56;99487.25;;;30.55;32.45
54816;BME280;40715;55.752;37.884;2023-09-19T05:41:23;99483.69;;;30.54;32.69
54816;BME280;40715;55.752;37.884;2023-09-19T05:43:50;99487.91;;;30.57;32.79
54816;BME280;40715;55.752;37.884;2023-09-19T05:46:17;99487.72;;;30.58;32.39
54816;BME280;40715;55.752;37.884;2023-09-19T05:48:44;99488.59;;;30.59;32.40
54816;BME280;40715;55.752;37.884;2023-09-19T05:51:11;99487.59;;;30.60;32.45
54816;BME280;40715;55.752;37.884;2023-09-19T05:53:38;99489.97;;;30.63;32.51
54816;BME280;40715;55.752;37.884;2023-09-19T05:56:05;99489.81;;;30.64;32.55
54816;BME280;40715;55.752;37.884;2023-09-19T05:58:32;99486.03;;;30.66;32.66
54816;BME280;40715;55.752;37.884;2023-09-19T06:00:59;99485.03;;;30.67;32.45
54816;BME280;40715;55.752;37.884;2023-09-19T06:03:26;99485.75;;;30.69;32.26
54816;BME280;40715;55.752;37.884;2023-09-19T06:05:55;99489.13;;;30.71;32.35
54816;BME280;40715;55.752;37.884;2023-09-19T06:08:24;99487.09;;;30.73;31.97
54816;BME280;40715;55.752;37.884;2023-09-19T06:10:52;99484.38;;;30.73;32.23
54816;BME280;40715;55.752;37.884;2023-09-19T06:13:19;99479.97;;;30.72;32.16
54816;BME280;40715;55.752;37.884;2023-09-19T06:15:47;99480.47;;;30.75;32.10
54816;BME280;40715;55.752;37.884;2023-09-19T06:18:13;99484.88;;;30.76;31.93
54816;BME280;40715;55.752;37.884;2023-09-19T06:20:47;99483.88;;;30.77;31.74
54816;BME280;40715;55.752;37.884;2023-09-19T06:23:14;99484.38;;;30.81;31.47
54816;BME280;40715;55.752;37.884;2023-09-19T06:25:41;99480.47;;;30.84;31.61
54816;BME280;40715;55.752;37.884;2023-09-19T06:28:10;99473.84;;;30.86;31.51
54816;BME280;40715;55.752;37.884;2023-09-19T06:30:39;99472.66;;;30.89;31.10
54816;BME280;40715;55.752;37.884;2023-09-19T06:33:09;99474.03;;;30.93;31.13
54816;BME280;40715;55.752;37.884;2023-09-19T06:35:38;99476.56;;;30.94;31.15
54816;BME280;40715;55.752;37.884;2023-09-19T06:38:05;99478.44;;;30.94;31.16
54816;BME280;40715;55.752;37.884;2023-09-19T06:40:34;99473.84;;;30.94;31.06
54816;BME280;40715;55.752;37.884;2023-09-19T06:43:01;99470.25;;;30.94;31.01
54816;BME280;40715;55.752;37.884;2023-09-19T06:45:31;99470.63;;;30.99;30.86
54816;BME280;40715;55.752;37.884;2023-09-19T06:48:00;99474.72;;;31.11;30.80
54816;BME280;40715;55.752;37.884;2023-09-19T06:50:29;99475.72;;;31.27;30.13
54816;BME280;40715;55.752;37.884;2023-09-19T06:52:57;99474.16;;;31.41;30.29
54816;BME280;40715;55.752;37.884;2023-09-19T06:55:26;99465.66;;;31.52;29.90
54816;BME280;40715;55.752;37.884;2023-09-19T06:57:58;99458.66;;;31.66;29.53
54816;BME280;40715;55.752;37.884;2023-09-19T07:00:25;99462.03;;;31.76;29.38
54816;BME280;40715;55.752;37.884;2023-09-19T07:03:03;99458.75;;;31.89;29.29
54816;BME280;40715;55.752;37.884;2023-09-19T07:05:33;99466.53;;;32.00;29.20
54816;BME280;40715;55.752;37.884;2023-09-19T07:08:00;99457.31;;;32.10;28.81
54816;BME280;40715;55.752;37.884;2023-09-19T07:10:30;99458.25;;;32.25;28.41
54816;BME280;40715;55.752;37.884;2023-09-19T07:12:57;99451.00;;;32.41;28.27
54816;BME280;40715;55.752;37.884;2023-09-19T07:15:29;99450.91;;;32.57;27.77
54816;BME280;40715;55.752;37.884;2023-09-19T07:17:57;99462.78;;;32.73;27.74
54816;BME280;40715;55.752;37.884;2023-09-19T07:20:24;99461.84;;;32.80;27.68
54816;BME280;40715;55.752;37.884;2023-09-19T07:22:56;99468.03;;;32.97;27.55
54816;BME280;40715;55.752;37.884;2023-09-19T07:25:27;99469.66;;;33.07;27.37
54816;BME280;40715;55.752;37.884;2023-09-19T07:27:55;99465.63;;;33.17;27.00
54816;BME280;40715;55.752;37.884;2023-09-19T07:30:23;99468.31;;;33.41;26.53
54816;BME280;40715;55.752;37.884;2023-09-19T07:32:50;99475.59;;;33.48;26.36
54816;BME280;40715;55.752;37.884;2023-09-19T07:35:17;99470.13;;;33.48;26.50
54816;BME280;40715;55.752;37.884;2023-09-19T07:37:46;99468.91;;;33.51;26.29
54816;BME280;40715;55.752;37.884;2023-09-19T07:40:17;99467.66;;;33.53;26.31
54816;BME280;40715;55.752;37.884;2023-09-19T07:42:44;99466.72;;;33.46;26.23
54816;BME280;40715;55.752;37.884;2023-09-19T07:45:14;99460.50;;;33.37;26.56
54816;BME280;40715;55.752;37.884;2023-09-19T07:47:45;99460.66;;;33.21;26.68
54816;BME280;40715;55.752;37.884;2023-09-19T07:50:14;99461.09;;;33.10;26.52
54816;BME280;40715;55.752;37.884;2023-09-19T07:52:42;99453.81;;;33.02;26.60
54816;BME280;40715;55.752;37.884;2023-09-19T07:55:10;99451.19;;;32.94;26.71
54816;BME280;40715;55.752;37.884;2023-09-19T07:57:38;99448.53;;;32.85;27.05
54816;BME280;40715;55.752;37.884;2023-09-19T08:00:05;99440.41;;;32.77;27.07
54816;BME280;40715;55.752;37.884;2023-09-19T08:02:37;99443.69;;;32.73;27.26
54816;BME280;40715;55.752;37.884;2023-09-19T08:05:11;99437.53;;;32.71;27.07
54816;BME280;40715;55.752;37.884;2023-09-19T08:07:40;99437.72;;;32.69;27.45
54816;BME280;40715;55.752;37.884;2023-09-19T08:10:08;99425.25;;;32.66;27.22
54816;BME280;40715;55.752;37.884;2023-09-19T08:12:40;99430.72;;;32.66;27.16
54816;BME280;40715;55.752;37.884;2023-09-19T08:15:20;99427.72;;;32.61;27.16
54816;BME280;40715;55.752;37.884;2023-09-19T08:17:48;99432.00;;;32.56;27.42
54816;BME280;40715;55.752;37.884;2023-09-19T08:20:16;99418.25;;;32.49;27.46
54816;BME280;40715;55.752;37.884;2023-09-19T08:22:51;99411.81;;;32.42;27.44
54816;BME280;40715;55.752;37.884;2023-09-19T08:25:22;99414.09;;;32.38;27.77
54816;BME280;40715;55.752;37.884;2023-09-19T08:27:50;99414.41;;;32.35;27.47
54816;BME280;40715;55.752;37.884;2023-09-19T08:30:20;99411.59;;;32.28;27.62
54816;BME280;40715;55.752;37.884;2023-09-19T08:32:51;99413.25;;;32.29;27.97
54816;BME280;40715;55.752;37.884;2023-09-19T08:35:18;99420.59;;;32.29;27.45
54816;BME280;40715;55.752;37.884;2023-09-19T08:37:46;99410.72;;;32.28;27.47
54816;BME280;40715;55.752;37.884;2023-09-19T08:40:13;99421.81;;;32.26;27.68
54816;BME280;40715;55.752;37.884;2023-09-19T08:42:55;99421.97;;;32.25;27.64
54816;BME280;40715;55.752;37.884;2023-09-19T08:45:24;99400.91;;;32.18;27.71
54816;BME280;40715;55.752;37.884;2023-09-19T08:50:41;99397.03;;;32.13;27.76
54816;BME280;40715;55.752;37.884;2023-09-19T08:53:20;99398.00;;;32.12;28.12
54816;BME280;40715;55.752;37.884;2023-09-19T08:55:51;99397.69;;;32.07;28.18
54816;BME280;40715;55.752;37.884;2023-09-19T08:58:26;99398.41;;;32.00;28.26
54816;BME280;40715;55.752;37.884;2023-09-19T09:00:57;99390.25;;;32.00;27.83
54816;BME280;40715;55.752;37.884;2023-09-19T09:03:32;99395.88;;;31.99;28.08
54816;BME280;40715;55.752;37.884;2023-09-19T09:06:01;99387.03;;;31.97;27.88
54816;BME280;40715;55.752;37.884;2023-09-19T09:08:30;99393.00;;;31.92;27.92
54816;BME280;40715;55.752;37.884;2023-09-19T09:10:58;99389.44;;;31.92;28.18
54816;BME280;40715;55.752;37.884;2023-09-19T09:13:25;99385.00;;;31.91;27.94
54816;BME280;40715;55.752;37.884;2023-09-19T09:15:53;99386.06;;;31.90;28.27
54816;BME280;40715;55.752;37.884;2023-09-19T09:18:21;99383.50;;;31.88;28.19
54816;BME280;40715;55.752;37.884;2023-09-19T09:20:49;99382.84;;;31.86;28.01
54816;BME280;40715;55.752;37.884;2023-09-19T09:23:16;99387.44;;;31.86;28.28
54816;BME280;40715;55.752;37.884;2023-09-19T09:25:50;99371.63;;;31.81;28.34
54816;BME280;40715;55.752;37.884;2023-09-19T09:28:27;99373.31;;;31.82;28.55
54816;BME280;40715;55.752;37.884;2023-09-19T09:30:58;99366.16;;;31.81;28.29
54816;BME280;40715;55.752;37.884;2023-09-19T09:33:25;99370.94;;;31.79;28.35
54816;BME280;40715;55.752;37.884;2023-09-19T09:35:52;99371.13;;;31.77;28.41
54816;BME280;40715;55.752;37.884;2023-09-19T09:38:21;99367.72;;;31.75;28.22
54816;BME280;40715;55.752;37.884;2023-09-19T09:40:52;99376.75;;;31.76;28.43
54816;BME280;40715;55.752;37.884;2023-09-19T09:43:29;99381.19;;;31.77;28.56
54816;BME280;40715;55.752;37.884;2023-09-19T09:46:14;99382.03;;;31.77;28.29
54816;BME280;40715;55.752;37.884;2023-09-19T09:49:02;99383.03;;;31.76;28.31
54816;BME280;40715;55.752;37.884;2023-09-19T09:51:49;99368.25;;;31.71;28.76
54816;BME280;40715;55.752;37.884;2023-09-19T09:54:29;99369.63;;;31.66;28.39
54816;BME280;40715;55.752;37.884;2023-09-19T09:57:10;99366.44;;;31.63;28.88
54816;BME280;40715;55.752;37.884;2023-09-19T10:02:19;99373.41;;;31.65;28.60
54816;BME280;40715;55.752;37.884;2023-09-19T10:04:52;99373.59;;;31.64;28.51
54816;BME280;40715;55.752;37.884;2023-09-19T10:07:30;99362.19;;;31.60;28.94
54816;BME280;40715;55.752;37.884;2023-09-19T10:10:10;99363.72;;;31.63;28.78
54816;BME280;40715;55.752;37.884;2023-09-19T10:12:43;99356.75;;;31.60;28.79
54816;BME280;40715;55.752;37.884;2023-09-19T10:15:12;99352.13;;;31.61;28.70
54816;BME280;40715;55.752;37.884;2023-09-19T10:17:43;99356.09;;;31.58;29.04
54816;BME280;40715;55.752;37.884;2023-09-19T10:20:14;99361.00;;;31.55;28.89
54816;BME280;40715;55.752;37.884;2023-09-19T10:23:03;99346.38;;;31.56;29.03
54816;BME280;40715;55.752;37.884;2023-09-19T10:25:41;99352.31;;;31.59;28.88
54816;BME280;40715;55.752;37.884;2023-09-19T10:28:10;99349.09;;;31.56;29.10
54816;BME280;40715;55.752;37.884;2023-09-19T10:30:49;99343.13;;;31.60;29.15
54816;BME280;40715;55.752;37.884;2023-09-19T10:33:23;99339.56;;;31.60;28.80
54816;BME280;40715;55.752;37.884;2023-09-19T10:35:53;99336.66;;;31.61;28.57
54816;BME280;40715;55.752;37.884;2023-09-19T10:38:23;99336.66;;;31.61;28.69
54816;BME280;40715;55.752;37.884;2023-09-19T10:40:53;99340.41;;;31.60;29.14
54816;BME280;40715;55.752;37.884;2023-09-19T10:43:22;99327.44;;;31.62;29.24
54816;BME280;40715;55.752;37.884;2023-09-19T10:45:53;99335.81;;;31.61;29.09
54816;BME280;40715;55.752;37.884;2023-09-19T10:48:23;99328.31;;;31.63;28.69
54816;BME280;40715;55.752;37.884;2023-09-19T10:51:06;99327.78;;;31.67;29.10
54816;BME280;40715;55.752;37.884;2023-09-19T10:53:59;99318.88;;;31.74;28.78
54816;BME280;40715;55.752;37.884;2023-09-19T10:56:35;99313.50;;;31.65;29.11
54816;BME280;40715;55.752;37.884;2023-09-19T10:59:11;99313.16;;;31.69;28.99
54816;BME280;40715;55.752;37.884;2023-09-19T11:01:51;99307.88;;;31.67;29.28
54816;BME280;40715;55.752;37.884;2023-09-19T11:04:29;99311.28;;;31.61;29.22
54816;BME280;40715;55.752;37.884;2023-09-19T11:07:11;99308.72;;;31.67;29.41
54816;BME280;40715;55.752;37.884;2023-09-19T11:09:54;99307.00;;;31.66;29.39
54816;BME280;40715;55.752;37.884;2023-09-19T11:15:08;99301.75;;;31.65;28.93
54816;BME280;40715;55.752;37.884;2023-09-19T11:17:41;99301.28;;;31.61;29.35
54816;BME280;40715;55.752;37.884;2023-09-19T11:30:37;99305.00;;;31.60;29.46
54816;BME280;40715;55.752;37.884;2023-09-19T11:36:02;99296.81;;;31.69;29.31
54816;BME280;40715;55.752;37.884;2023-09-19T11:46:54;99296.06;;;31.75;29.34
54816;BME280;40715;55.752;37.884;2023-09-19T11:49:31;99291.19;;;31.70;29.15
54816;BME280;40715;55.752;37.884;2023-09-19T11:52:00;99298.84;;;31.66;29.20
54816;BME280;40715;55.752;37.884;2023-09-19T11:54:28;99291.72;;;31.65;29.58
54816;BME280;40715;55.752;37.884;2023-09-19T11:56:59;99287.66;;;31.61;29.15
54816;BME280;40715;55.752;37.884;2023-09-19T11:59:28;99288.31;;;31.63;29.27
54816;BME280;40715;55.752;37.884;2023-09-19T12:01:57;99287.28;;;31.64;29.42
54816;BME280;40715;55.752;37.884;2023-09-19T12:04:34;99282.13;;;31.70;29.23
54816;BME280;40715;55.752;37.884;2023-09-19T12:07:06;99284.84;;;31.70;29.17
54816;BME280;40715;55.752;37.884;2023-09-19T12:09:48;99276.34;;;31.73;29.31
54816;BME280;40715;55.752;37.884;2023-09-19T12:12:21;99273.13;;;31.69;29.36
54816;BME280;40715;55.752;37.884;2023-09-19T12:14:50;99270.41;;;31.69;29.58
54816;BME280;40715;55.752;37.884;2023-09-19T12:17:18;99266.84;;;31.69;29.38
54816;BME280;40715;55.752;37.884;2023-09-19T12:19:55;99263.25;;;31.68;29.50
54816;BME280;40715;55.752;37.884;2023-09-19T12:22:23;99259.53;;;31.69;29.76
54816;BME280;40715;55.752;37.884;2023-09-19T12:24:51;99254.44;;;31.66;29.82
54816;BME280;40715;55.752;37.884;2023-09-19T12:27:21;99261.59;;;31.67;29.88
54816;BME280;40715;55.752;37.884;2023-09-19T12:29:49;99262.41;;;31.67;29.42
54816;BME280;40715;55.752;37.884;2023-09-19T12:32:16;99246.25;;;31.66;29.68
54816;BME280;40715;55.752;37.884;2023-09-19T12:34:52;99250.50;;;31.69;29.91
54816;BME280;40715;55.752;37.884;2023-09-19T12:37:21;99241.47;;;31.68;29.44
54816;BME280;40715;55.752;37.884;2023-09-19T12:39:52;99243.53;;;31.66;29.94
54816;BME280;40715;55.752;37.884;2023-09-19T12:42:24;99245.25;;;31.67;29.81
54816;BME280;40715;55.752;37.884;2023-09-19T12:44:56;99241.47;;;31.68;29.55
54816;BME280;40715;55.752;37.884;2023-09-19T12:47:24;99232.47;;;31.67;29.68
54816;BME280;40715;55.752;37.884;2023-09-19T12:52:46;99224.28;;;31.67;29.91
54816;BME280;40715;55.752;37.884;2023-09-19T12:55:27;99214.44;;;31.66;29.90
54816;BME280;40715;55.752;37.884;2023-09-19T13:00:33;99217.34;;;31.65;30.04
54816;BME280;40715;55.752;37.884;2023-09-19T13:03:29;99221.16;;;31.79;29.60
54816;BME280;40715;55.752;37.884;2023-09-19T13:06:00;99212.75;;;31.65;30.03
54816;BME280;40715;55.752;37.884;2023-09-19T13:08:31;99217.50;;;31.63;30.02
54816;BME280;40715;55.752;37.884;2023-09-19T13:11:08;99215.47;;;31.65;29.88
54816;BME280;40715;55.752;37.884;2023-09-19T13:13:44;99214.78;;;31.63;29.96
54816;BME280;40715;55.752;37.884;2023-09-19T13:16:16;99217.50;;;31.63;29.90
54816;BME280;40715;55.752;37.884;2023-09-19T13:18:53;99206.63;;;31.63;30.25
54816;BME280;40715;55.752;37.884;2023-09-19T13:21:31;99205.25;;;31.67;29.97
54816;BME280;40715;55.752;37.884;2023-09-19T13:24:24;99206.06;;;31.68;30.41
54816;BME280;40715;55.752;37.884;2023-09-19T13:26:54;99204.59;;;31.65;30.35
54816;BME280;40715;55.752;37.884;2023-09-19T13:29:21;99202.03;;;31.64;30.42
54816;BME280;40715;55.752;37.884;2023-09-19T13:31:52;99193.88;;;31.64;30.29
54816;BME280;40715;55.752;37.884;2023-09-19T13:34:22;99189.28;;;31.64;30.57
54816;BME280;40715;55.752;37.884;2023-09-19T13:36:50;99192.19;;;31.63;30.14
54816;BME280;40715;55.752;37.884;2023-09-19T13:39:17;99185.53;;;31.65;30.07
54816;BME280;40715;55.752;37.884;2023-09-19T13:41:45;99189.44;;;31.63;30.18
54816;BME280;40715;55.752;37.884;2023-09-19T13:44:14;99183.81;;;31.64;30.34
54816;BME280;40715;55.752;37.884;2023-09-19T13:46:41;99183.44;;;31.67;30.76
54816;BME280;40715;55.752;37.884;2023-09-19T13:49:12;99181.56;;;31.68;30.43
54816;BME280;40715;55.752;37.884;2023-09-19T13:51:39;99163.56;;;31.67;30.39
54816;BME280;40715;55.752;37.884;2023-09-19T13:54:10;99172.75;;;31.66;30.69
54816;BME280;40715;55.752;37.884;2023-09-19T13:56:38;99173.22;;;31.70;30.36
54816;BME280;40715;55.752;37.884;2023-09-19T13:59:15;99176.81;;;31.70;30.83
54816;BME280;40715;55.752;37.884;2023-09-19T14:01:42;99172.00;;;31.72;30.33